sensor_id;sensor_type;location;lat;lon;timestamp;pressure;altitude;pressure_sealevel;temperature;humidity
30347;BME280;19047;44.782;20.468;2022-08-21T00:00:44;100217.00;;;23.89;80.84
30347;BME280;19047;44.782;20.468;2022-08-21T00:04:07;100183.47;;;23.68;81.27
30347;BME280;19047;44.782;20.468;2022-08-21T00:07:38;100206.06;;;23.77;81.22
30347;BME280;19047;44.782;20.468;2022-08-21T00:10:55;100213.09;;;23.76;81.19
30347;BME280;19047;44.782;20.468;2022-08-21T00:14:26;100214.63;;;23.71;81.63
30347;BME280;19047;44.782;20.468;2022-08-21T00:17:45;100217.22;;;23.69;81.54
30347;BME280;19047;44.782;20.468;2022-08-21T00:21:16;100194.34;;;23.52;82.01
30347;BME280;19047;44.782;20.468;2022-08-21T00:24:36;100201.38;;;23.57;81.77
30347;BME280;19047;44.782;20.468;2022-08-21T00:28:07;100219.81;;;23.61;81.84
30347;BME280;19047;44.782;20.468;2022-08-21T00:31:24;100218.22;;;23.60;81.73
30347;BME280;19047;44.782;20.468;2022-08-21T00:34:55;100221.59;;;23.59;81.66
30347;BME280;19047;44.782;20.468;2022-08-21T00:38:12;100202.34;;;23.43;81.63
30347;BME280;19047;44.782;20.468;2022-08-21T00:41:42;100216.94;;;23.56;81.97
30347;BME280;19047;44.782;20.468;2022-08-21T00:45:00;100226.03;;;23.54;81.79
30347;BME280;19047;44.782;20.468;2022-08-21T00:48:32;100221.34;;;23.51;81.92
30347;BME280;19047;44.782;20.468;2022-08-21T00:51:55;100241.88;;;23.55;81.99
30347;BME280;19047;44.782;20.468;2022-08-21T00:55:26;100192.44;;;23.33;81.65
30347;BME280;19047;44.782;20.468;2022-08-21T00:58:45;100216.41;;;23.52;81.49
30347;BME280;19047;44.782;20.468;2022-08-21T01:02:17;100223.16;;;23.54;81.62
30347;BME280;19047;44.782;20.468;2022-08-21T01:05:34;100228.09;;;23.54;81.67
30347;BME280;19047;44.782;20.468;2022-08-21T01:09:05;100230.94;;;23.54;81.54
30347;BME280;19047;44.782;20.468;2022-08-21T01:12:22;100216.91;;;23.50;81.21
30347;BME280;19047;44.782;20.468;2022-08-21T01:15:56;100224.94;;;23.46;80.60
30347;BME280;19047;44.782;20.468;2022-08-21T01:19:18;100211.69;;;23.49;80.62
30347;BME280;19047;44.782;20.468;2022-08-21T01:22:50;100217.16;;;23.47;80.37
30347;BME280;19047;44.782;20.468;2022-08-21T01:26:07;100215.03;;;23.42;80.25
30347;BME280;19047;44.782;20.468;2022-08-21T01:30:13;100216.56;;;23.37;79.13
30347;BME280;19047;44.782;20.468;2022-08-21T01:33:31;100217.63;;;23.34;79.38
30347;BME280;19047;44.782;20.468;2022-08-21T01:37:02;100213.44;;;23.29;79.03
30347;BME280;19047;44.782;20.468;2022-08-21T01:40:19;100212.91;;;23.25;78.87
30347;BME280;19047;44.782;20.468;2022-08-21T01:43:50;100205.06;;;23.15;78.78
30347;BME280;19047;44.782;20.468;2022-08-21T01:47:12;100208.19;;;23.17;78.63
30347;BME280;19047;44.782;20.468;2022-08-21T01:50:43;100174.91;;;22.91;78.75
30347;BME280;19047;44.782;20.468;2022-08-21T01:54:00;100190.25;;;23.05;78.59
30347;BME280;19047;44.782;20.468;2022-08-21T01:57:31;100196.97;;;22.97;79.00
30347;BME280;19047;44.782;20.468;2022-08-21T02:00:49;100201.59;;;22.88;78.92
30347;BME280;19047;44.782;20.468;2022-08-21T02:04:20;100191.69;;;22.78;79.23
30347;BME280;19047;44.782;20.468;2022-08-21T02:07:41;100188.25;;;22.69;79.45
30347;BME280;19047;44.782;20.468;2022-08-21T02:11:11;100155.41;;;22.42;79.78
30347;BME280;19047;44.782;20.468;2022-08-21T02:14:27;100181.13;;;22.53;79.95
30347;BME280;19047;44.782;20.468;2022-08-21T02:18:00;100180.31;;;22.47;79.73
30347;BME280;19047;44.782;20.468;2022-08-21T02:21:18;100167.06;;;22.38;80.01
30347;BME280;19047;44.782;20.468;2022-08-21T02:24:49;100169.84;;;22.33;80.04
30347;BME280;19047;44.782;20.468;2022-08-21T02:28:08;100173.19;;;22.26;80.48
30347;BME280;19047;44.782;20.468;2022-08-21T02:31:41;100166.03;;;22.04;80.75
30347;BME280;19047;44.782;20.468;2022-08-21T02:34:57;100196.41;;;22.13;80.90
30347;BME280;19047;44.782;20.468;2022-08-21T02:42:08;100187.47;;;22.00;81.22
30347;BME280;19047;44.782;20.468;2022-08-21T02:45:39;100186.88;;;21.96;81.35
30347;BME280;19047;44.782;20.468;2022-08-21T02:48:59;100186.84;;;21.90;81.20
30347;BME280;19047;44.782;20.468;2022-08-21T02:52:31;100178.25;;;21.84;81.74
30347;BME280;19047;44.782;20.468;2022-08-21T02:55:48;100176.41;;;21.81;81.84
30347;BME280;19047;44.782;20.468;2022-08-21T02:59:20;100173.78;;;21.78;81.92
30347;BME280;19047;44.782;20.468;2022-08-21T03:02:36;100163.91;;;21.73;82.12
30347;BME280;19047;44.782;20.468;2022-08-21T03:06:10;100169.84;;;21.70;82.34
30347;BME280;19047;44.782;20.468;2022-08-21T03:09:27;100176.03;;;21.68;82.25
30347;BME280;19047;44.782;20.468;2022-08-21T03:12:58;100177.81;;;21.66;82.54
30347;BME280;19047;44.782;20.468;2022-08-21T03:16:16;100168.44;;;21.60;82.70
30347;BME280;19047;44.782;20.468;2022-08-21T03:19:50;100176.00;;;21.63;82.77
30347;BME280;19047;44.782;20.468;2022-08-21T03:23:22;100157.72;;;21.49;83.03
30347;BME280;19047;44.782;20.468;2022-08-21T03:26:39;100178.53;;;21.61;83.19
30347;BME280;19047;44.782;20.468;2022-08-21T03:30:13;100178.06;;;21.62;83.31
30347;BME280;19047;44.782;20.468;2022-08-21T03:33:30;100176.97;;;21.60;83.07
30347;BME280;19047;44.782;20.468;2022-08-21T03:37:02;100172.84;;;21.61;83.42
30347;BME280;19047;44.782;20.468;2022-08-21T03:40:19;100147.34;;;21.46;83.41
30347;BME280;19047;44.782;20.468;2022-08-21T03:43:50;100171.28;;;21.60;83.43
30347;BME280;19047;44.782;20.468;2022-08-21T03:47:07;100171.28;;;21.60;83.36
30347;BME280;19047;44.782;20.468;2022-08-21T03:50:43;100179.81;;;21.60;83.67
30347;BME280;19047;44.782;20.468;2022-08-21T03:54:00;100151.16;;;21.43;83.48
30347;BME280;19047;44.782;20.468;2022-08-21T03:57:32;100161.91;;;21.54;83.74
30347;BME280;19047;44.782;20.468;2022-08-21T04:00:51;100172.78;;;21.55;83.67
30347;BME280;19047;44.782;20.468;2022-08-21T04:04:22;100150.84;;;21.35;83.94
30347;BME280;19047;44.782;20.468;2022-08-21T04:07:39;100161.06;;;21.47;83.87
30347;BME280;19047;44.782;20.468;2022-08-21T04:11:10;100185.19;;;21.52;84.07
30347;BME280;19047;44.782;20.468;2022-08-21T04:14:27;100176.38;;;21.50;84.31
30347;BME280;19047;44.782;20.468;2022-08-21T04:18:00;100181.28;;;21.49;84.34
30347;BME280;19047;44.782;20.468;2022-08-21T04:21:23;100149.00;;;21.32;84.48
30347;BME280;19047;44.782;20.468;2022-08-21T04:24:54;100173.41;;;21.39;84.47
30347;BME280;19047;44.782;20.468;2022-08-21T04:28:11;100175.88;;;21.52;84.39
30347;BME280;19047;44.782;20.468;2022-08-21T04:31:42;100176.38;;;21.50;84.59
30347;BME280;19047;44.782;20.468;2022-08-21T04:35:06;100185.94;;;21.53;84.90
30347;BME280;19047;44.782;20.468;2022-08-21T04:38:37;100184.91;;;21.50;85.13
30347;BME280;19047;44.782;20.468;2022-08-21T04:41:54;100168.22;;;21.37;85.09
30347;BME280;19047;44.782;20.468;2022-08-21T04:45:45;100196.34;;;21.56;85.03
30347;BME280;19047;44.782;20.468;2022-08-21T04:49:06;100199.69;;;21.54;85.13
30347;BME280;19047;44.782;20.468;2022-08-21T04:52:36;100205.94;;;21.58;85.20
30347;BME280;19047;44.782;20.468;2022-08-21T04:55:55;100204.97;;;21.61;85.21
30347;BME280;19047;44.782;20.468;2022-08-21T04:59:33;100205.22;;;21.63;85.26
30347;BME280;19047;44.782;20.468;2022-08-21T05:02:53;100204.19;;;21.61;85.26
30347;BME280;19047;44.782;20.468;2022-08-21T05:06:30;100203.44;;;21.66;85.19
30347;BME280;19047;44.782;20.468;2022-08-21T05:09:49;100183.88;;;21.53;85.21
30347;BME280;19047;44.782;20.468;2022-08-21T05:13:21;100207.13;;;21.72;85.09
30347;BME280;19047;44.782;20.468;2022-08-21T05:16:40;100206.88;;;21.75;85.17
30347;BME280;19047;44.782;20.468;2022-08-21T05:20:12;100192.31;;;21.68;85.07
30347;BME280;19047;44.782;20.468;2022-08-21T05:23:30;100199.13;;;21.76;85.08
30347;BME280;19047;44.782;20.468;2022-08-21T05:27:01;100208.53;;;21.82;84.81
30347;BME280;19047;44.782;20.468;2022-08-21T05:30:19;100208.81;;;21.84;84.53
30347;BME280;19047;44.782;20.468;2022-08-21T05:33:50;100186.69;;;21.73;84.83
30347;BME280;19047;44.782;20.468;2022-08-21T05:37:10;100205.44;;;21.85;84.82
30347;BME280;19047;44.782;20.468;2022-08-21T05:40:42;100220.56;;;21.97;85.10
30347;BME280;19047;44.782;20.468;2022-08-21T05:43:59;100184.19;;;21.81;85.12
30347;BME280;19047;44.782;20.468;2022-08-21T05:47:30;100210.03;;;22.03;84.93
30347;BME280;19047;44.782;20.468;2022-08-21T05:50:48;100194.44;;;21.99;85.02
30347;BME280;19047;44.782;20.468;2022-08-21T05:54:18;100202.03;;;22.07;85.03
30347;BME280;19047;44.782;20.468;2022-08-21T05:57:35;100187.97;;;21.98;84.74
30347;BME280;19047;44.782;20.468;2022-08-21T06:01:07;100217.66;;;22.17;84.80
30347;BME280;19047;44.782;20.468;2022-08-21T06:04:25;100209.38;;;22.19;84.66
30347;BME280;19047;44.782;20.468;2022-08-21T06:07:57;100213.09;;;22.26;84.66
30347;BME280;19047;44.782;20.468;2022-08-21T06:11:13;100206.34;;;22.29;85.04
30347;BME280;19047;44.782;20.468;2022-08-21T06:14:44;100207.19;;;22.35;84.72
30347;BME280;19047;44.782;20.468;2022-08-21T06:18:04;100211.34;;;22.39;84.63
30347;BME280;19047;44.782;20.468;2022-08-21T06:21:35;100212.69;;;22.44;84.56
30347;BME280;19047;44.782;20.468;2022-08-21T06:24:55;100214.81;;;22.49;84.64
30347;BME280;19047;44.782;20.468;2022-08-21T06:28:25;100216.41;;;22.55;84.44
30347;BME280;19047;44.782;20.468;2022-08-21T06:31:44;100207.88;;;22.61;84.36
30347;BME280;19047;44.782;20.468;2022-08-21T06:35:18;100208.97;;;22.69;84.40
30347;BME280;19047;44.782;20.468;2022-08-21T06:38:41;100201.25;;;22.75;84.07
30347;BME280;19047;44.782;20.468;2022-08-21T06:42:18;100218.94;;;22.85;84.00
30347;BME280;19047;44.782;20.468;2022-08-21T06:45:35;100182.84;;;22.76;83.88
30347;BME280;19047;44.782;20.468;2022-08-21T06:49:06;100206.06;;;23.01;84.04
30347;BME280;19047;44.782;20.468;2022-08-21T06:52:31;100205.06;;;23.09;83.67
30347;BME280;19047;44.782;20.468;2022-08-21T06:56:03;100205.63;;;23.19;83.52
30347;BME280;19047;44.782;20.468;2022-08-21T06:59:20;100213.44;;;23.29;83.69
30347;BME280;19047;44.782;20.468;2022-08-21T07:02:50;100207.81;;;23.46;82.94
30347;BME280;19047;44.782;20.468;2022-08-21T07:06:09;100202.16;;;23.57;82.83
30347;BME280;19047;44.782;20.468;2022-08-21T07:09:40;100198.53;;;23.68;82.68
30347;BME280;19047;44.782;20.468;2022-08-21T07:12:57;100204.00;;;23.83;82.61
30347;BME280;19047;44.782;20.468;2022-08-21T07:16:28;100208.44;;;23.95;82.37
30347;BME280;19047;44.782;20.468;2022-08-21T07:19:48;100205.31;;;24.04;82.39
30347;BME280;19047;44.782;20.468;2022-08-21T07:23:29;100189.47;;;23.97;82.01
30347;BME280;19047;44.782;20.468;2022-08-21T07:26:50;100181.41;;;23.96;82.17
30347;BME280;19047;44.782;20.468;2022-08-21T07:30:22;100190.78;;;24.08;81.77
30347;BME280;19047;44.782;20.468;2022-08-21T07:33:41;100183.75;;;24.09;81.48
30347;BME280;19047;44.782;20.468;2022-08-21T07:37:11;100207.41;;;24.20;81.28
30347;BME280;19047;44.782;20.468;2022-08-21T07:40:28;100207.16;;;24.24;81.31
30347;BME280;19047;44.782;20.468;2022-08-21T07:43:59;100186.09;;;24.05;80.86
30347;BME280;19047;44.782;20.468;2022-08-21T07:47:16;100208.97;;;24.21;80.78
30347;BME280;19047;44.782;20.468;2022-08-21T07:50:46;100165.31;;;23.93;80.39
30347;BME280;19047;44.782;20.468;2022-08-21T07:54:03;100212.88;;;24.24;80.32
30347;BME280;19047;44.782;20.468;2022-08-21T07:57:34;100215.22;;;24.25;80.04
30347;BME280;19047;44.782;20.468;2022-08-21T08:00:51;100181.16;;;24.11;80.02
30347;BME280;19047;44.782;20.468;2022-08-21T08:04:22;100178.56;;;24.07;79.95
30347;BME280;19047;44.782;20.468;2022-08-21T08:07:39;100200.16;;;24.25;80.20
30347;BME280;19047;44.782;20.468;2022-08-21T08:11:11;100201.97;;;24.22;80.26
30347;BME280;19047;44.782;20.468;2022-08-21T08:14:28;100195.97;;;24.20;80.22
30347;BME280;19047;44.782;20.468;2022-08-21T08:17:59;100154.13;;;23.95;79.97
30347;BME280;19047;44.782;20.468;2022-08-21T08:21:18;100174.13;;;24.06;80.11
30347;BME280;19047;44.782;20.468;2022-08-21T08:24:51;100178.81;;;24.09;80.17
30347;BME280;19047;44.782;20.468;2022-08-21T08:28:08;100204.56;;;24.26;80.52
30347;BME280;19047;44.782;20.468;2022-08-21T08:31:39;100186.91;;;24.22;80.11
30347;BME280;19047;44.782;20.468;2022-08-21T08:34:56;100182.44;;;24.15;80.37
30347;BME280;19047;44.782;20.468;2022-08-21T08:38:27;100200.16;;;24.30;80.06
30347;BME280;19047;44.782;20.468;2022-08-21T08:41:47;100173.63;;;24.19;79.97
30347;BME280;19047;44.782;20.468;2022-08-21T08:45:20;100181.19;;;24.27;79.87
30347;BME280;19047;44.782;20.468;2022-08-21T08:48:51;100191.31;;;24.40;79.81
30347;BME280;19047;44.782;20.468;2022-08-21T08:52:40;100196.00;;;24.43;79.44
30347;BME280;19047;44.782;20.468;2022-08-21T08:56:09;100181.91;;;24.45;79.87
30347;BME280;19047;44.782;20.468;2022-08-21T08:59:44;100165.31;;;24.37;79.88
30347;BME280;19047;44.782;20.468;2022-08-21T09:03:02;100167.88;;;24.47;80.12
30347;BME280;19047;44.782;20.468;2022-08-21T09:10:26;100132.25;;;24.53;79.90
30347;BME280;19047;44.782;20.468;2022-08-21T09:21:37;100176.28;;;25.19;79.20
30347;BME280;19047;44.782;20.468;2022-08-21T09:28:35;100150.50;;;25.19;79.63
30347;BME280;19047;44.782;20.468;2022-08-21T09:31:52;100170.72;;;25.32;79.53
30347;BME280;19047;44.782;20.468;2022-08-21T09:35:24;100165.78;;;25.33;79.47
30347;BME280;19047;44.782;20.468;2022-08-21T09:38:52;100163.47;;;25.26;78.91
30347;BME280;19047;44.782;20.468;2022-08-21T09:42:31;100152.53;;;25.24;78.83
30347;BME280;19047;44.782;20.468;2022-08-21T09:46:12;100160.09;;;25.22;78.91
30347;BME280;19047;44.782;20.468;2022-08-21T09:49:48;100152.88;;;25.09;79.24
30347;BME280;19047;44.782;20.468;2022-08-21T09:53:13;100167.44;;;25.12;79.55
30347;BME280;19047;44.782;20.468;2022-08-21T09:56:57;100164.09;;;25.02;78.99
30347;BME280;19047;44.782;20.468;2022-08-21T10:00:35;100153.19;;;24.89;79.61
30347;BME280;19047;44.782;20.468;2022-08-21T10:04:10;100155.81;;;24.82;79.48
30347;BME280;19047;44.782;20.468;2022-08-21T10:07:30;100157.41;;;24.77;79.63
30347;BME280;19047;44.782;20.468;2022-08-21T10:11:08;100157.16;;;24.69;79.53
30347;BME280;19047;44.782;20.468;2022-08-21T10:14:38;100157.97;;;24.59;79.72
30347;BME280;19047;44.782;20.468;2022-08-21T10:22:18;100152.59;;;24.33;79.87
30347;BME280;19047;44.782;20.468;2022-08-21T10:26:11;100160.09;;;24.19;80.04
30347;BME280;19047;44.782;20.468;2022-08-21T10:36:58;100158.00;;;23.70;80.66
30347;BME280;19047;44.782;20.468;2022-08-21T10:40:55;100166.56;;;23.58;80.78
30347;BME280;19047;44.782;20.468;2022-08-21T10:48:29;100179.19;;;23.24;80.99
30347;BME280;19047;44.782;20.468;2022-08-21T10:56:12;100195.38;;;22.90;81.59
30347;BME280;19047;44.782;20.468;2022-08-21T10:59:57;100216.06;;;22.79;81.78
30347;BME280;19047;44.782;20.468;2022-08-21T11:03:24;100215.94;;;22.63;81.84
30347;BME280;19047;44.782;20.468;2022-08-21T11:07:27;100199.44;;;22.41;82.23
30347;BME280;19047;44.782;20.468;2022-08-21T11:10:47;100189.50;;;22.25;82.45
30347;BME280;19047;44.782;20.468;2022-08-21T11:14:34;100182.16;;;22.13;82.69
30347;BME280;19047;44.782;20.468;2022-08-21T11:18:15;100198.16;;;22.05;83.06
30347;BME280;19047;44.782;20.468;2022-08-21T11:22:00;100197.25;;;21.93;83.58
30347;BME280;19047;44.782;20.468;2022-08-21T11:25:37;100172.91;;;21.66;83.75
30347;BME280;19047;44.782;20.468;2022-08-21T11:32:57;100195.97;;;21.68;84.14
30347;BME280;19047;44.782;20.468;2022-08-21T11:40:23;100183.25;;;21.43;84.84
30347;BME280;19047;44.782;20.468;2022-08-21T11:44:09;100190.59;;;21.50;84.92
30347;BME280;19047;44.782;20.468;2022-08-21T11:52:07;100198.84;;;21.48;85.38
30347;BME280;19047;44.782;20.468;2022-08-21T11:55:43;100189.75;;;21.44;85.59
30347;BME280;19047;44.782;20.468;2022-08-21T11:59:22;100183.00;;;21.41;85.97
30347;BME280;19047;44.782;20.468;2022-08-21T12:02:50;100178.59;;;21.40;86.03
30347;BME280;19047;44.782;20.468;2022-08-21T12:06:32;100190.03;;;21.46;86.31
30347;BME280;19047;44.782;20.468;2022-08-21T12:09:53;100187.75;;;21.50;86.48
30347;BME280;19047;44.782;20.468;2022-08-21T12:13:25;100182.09;;;21.56;86.52
30347;BME280;19047;44.782;20.468;2022-08-21T12:16:47;100174.34;;;21.56;86.79
30347;BME280;19047;44.782;20.468;2022-08-21T12:23:46;100178.47;;;21.81;87.18
30347;BME280;19047;44.782;20.468;2022-08-21T12:30:38;100167.31;;;22.03;87.50
30347;BME280;19047;44.782;20.468;2022-08-21T12:34:09;100167.91;;;22.13;87.45
30347;BME280;19047;44.782;20.468;2022-08-21T12:37:34;100160.72;;;22.23;87.60
30347;BME280;19047;44.782;20.468;2022-08-21T12:41:16;100169.63;;;22.36;87.71
30347;BME280;19047;44.782;20.468;2022-08-21T12:44:37;100170.50;;;22.48;87.28
30347;BME280;19047;44.782;20.468;2022-08-21T12:48:26;100175.97;;;22.57;87.41
30347;BME280;19047;44.782;20.468;2022-08-21T12:51:55;100192.09;;;22.66;87.23
30347;BME280;19047;44.782;20.468;2022-08-21T12:55:27;100184.59;;;22.68;86.78
30347;BME280;19047;44.782;20.468;2022-08-21T12:58:51;100188.25;;;22.74;86.86
30347;BME280;19047;44.782;20.468;2022-08-21T13:02:28;100188.06;;;22.78;86.50
30347;BME280;19047;44.782;20.468;2022-08-21T13:05:47;100185.75;;;22.82;86.54
30347;BME280;19047;44.782;20.468;2022-08-21T13:09:19;100180.34;;;22.95;86.61
30347;BME280;19047;44.782;20.468;2022-08-21T13:12:36;100188.97;;;23.06;86.20
30347;BME280;19047;44.782;20.468;2022-08-21T13:16:08;100185.09;;;23.15;86.05
30347;BME280;19047;44.782;20.468;2022-08-21T13:19:26;100198.63;;;23.25;85.66
30347;BME280;19047;44.782;20.468;2022-08-21T13:22:57;100190.88;;;23.32;85.57
30347;BME280;19047;44.782;20.468;2022-08-21T13:26:21;100196.88;;;23.39;85.40
30347;BME280;19047;44.782;20.468;2022-08-21T13:33:25;100179.31;;;23.57;85.06
30347;BME280;19047;44.782;20.468;2022-08-21T13:36:59;100176.97;;;23.73;84.93
30347;BME280;19047;44.782;20.468;2022-08-21T13:40:31;100187.38;;;23.92;84.75
30347;BME280;19047;44.782;20.468;2022-08-21T13:44:19;100188.44;;;24.12;84.05
30347;BME280;19047;44.782;20.468;2022-08-21T13:47:46;100179.13;;;24.22;84.16
30347;BME280;19047;44.782;20.468;2022-08-21T13:51:22;100177.25;;;24.36;83.87
30347;BME280;19047;44.782;20.468;2022-08-21T13:54:42;100174.13;;;24.51;83.72
30347;BME280;19047;44.782;20.468;2022-08-21T13:58:26;100166.03;;;24.66;83.68
30347;BME280;19047;44.782;20.468;2022-08-21T14:01:58;100158.69;;;24.82;82.43
30347;BME280;19047;44.782;20.468;2022-08-21T14:05:34;100149.31;;;24.87;82.13
30347;BME280;19047;44.782;20.468;2022-08-21T14:08:58;100176.03;;;25.12;81.58
30347;BME280;19047;44.782;20.468;2022-08-21T14:12:48;100174.19;;;25.20;81.07
30347;BME280;19047;44.782;20.468;2022-08-21T14:16:21;100158.31;;;25.13;81.35
30347;BME280;19047;44.782;20.468;2022-08-21T14:19:52;100177.53;;;25.24;80.74
30347;BME280;19047;44.782;20.468;2022-08-21T14:23:09;100174.41;;;25.22;80.51
30347;BME280;19047;44.782;20.468;2022-08-21T14:26:44;100179.41;;;25.16;80.48
30347;BME280;19047;44.782;20.468;2022-08-21T14:30:10;100179.47;;;24.99;80.22
30347;BME280;19047;44.782;20.468;2022-08-21T14:33:41;100176.38;;;24.86;80.11
30347;BME280;19047;44.782;20.468;2022-08-21T14:36:59;100173.28;;;24.67;80.16
30347;BME280;19047;44.782;20.468;2022-08-21T14:40:32;100151.28;;;24.28;80.19
30347;BME280;19047;44.782;20.468;2022-08-21T14:43:50;100171.81;;;24.27;80.34
30347;BME280;19047;44.782;20.468;2022-08-21T14:47:23;100172.81;;;23.90;80.02
30347;BME280;19047;44.782;20.468;2022-08-21T14:50:40;100180.91;;;23.86;80.29
30347;BME280;19047;44.782;20.468;2022-08-21T14:54:10;100174.38;;;23.69;80.45
30347;BME280;19047;44.782;20.468;2022-08-21T14:57:28;100195.13;;;23.53;80.49
30347;BME280;19047;44.782;20.468;2022-08-21T15:01:00;100188.56;;;23.41;81.04
30347;BME280;19047;44.782;20.468;2022-08-21T15:04:20;100183.38;;;23.34;81.25
30347;BME280;19047;44.782;20.468;2022-08-21T15:07:51;100182.56;;;23.28;81.80
30347;BME280;19047;44.782;20.468;2022-08-21T15:11:08;100177.59;;;23.17;81.88
30347;BME280;19047;44.782;20.468;2022-08-21T15:14:42;100168.25;;;23.17;82.05
30347;BME280;19047;44.782;20.468;2022-08-21T15:17:59;100168.50;;;23.13;82.40
30347;BME280;19047;44.782;20.468;2022-08-21T15:21:31;100171.31;;;23.08;82.61
30347;BME280;19047;44.782;20.468;2022-08-21T15:24:51;100165.84;;;23.04;82.73
30347;BME280;19047;44.782;20.468;2022-08-21T15:28:24;100175.97;;;23.00;83.24
30347;BME280;19047;44.782;20.468;2022-08-21T15:31:57;100166.59;;;22.93;83.35
30347;BME280;19047;44.782;20.468;2022-08-21T15:35:28;100165.28;;;22.89;83.44
30347;BME280;19047;44.782;20.468;2022-08-21T15:38:45;100164.75;;;22.85;83.71
30347;BME280;19047;44.782;20.468;2022-08-21T15:42:15;100171.22;;;22.80;83.53
30347;BME280;19047;44.782;20.468;2022-08-21T15:45:35;100170.94;;;22.78;83.94
30347;BME280;19047;44.782;20.468;2022-08-21T15:49:09;100176.84;;;22.74;83.66
30347;BME280;19047;44.782;20.468;2022-08-21T15:52:26;100172.69;;;22.70;83.98
30347;BME280;19047;44.782;20.468;2022-08-21T15:56:00;100170.06;;;22.66;83.94
30347;BME280;19047;44.782;20.468;2022-08-21T15:59:21;100169.00;;;22.64;84.03
30347;BME280;19047;44.782;20.468;2022-08-21T16:02:53;100155.00;;;22.60;84.15
30347;BME280;19047;44.782;20.468;2022-08-21T16:06:14;100166.91;;;22.58;84.30
30347;BME280;19047;44.782;20.468;2022-08-21T16:09:45;100174.41;;;22.56;84.29
30347;BME280;19047;44.782;20.468;2022-08-21T16:13:05;100168.44;;;22.54;84.54
30347;BME280;19047;44.782;20.468;2022-08-21T16:16:37;100169.44;;;22.51;84.52
30347;BME280;19047;44.782;20.468;2022-08-21T16:19:54;100173.59;;;22.50;84.58
30347;BME280;19047;44.782;20.468;2022-08-21T16:23:25;100180.31;;;22.47;84.50
30347;BME280;19047;44.782;20.468;2022-08-21T16:26:42;100181.88;;;22.48;84.91
30347;BME280;19047;44.782;20.468;2022-08-21T16:30:12;100177.19;;;22.45;84.95
30347;BME280;19047;44.782;20.468;2022-08-21T16:33:32;100169.94;;;22.44;84.90
30347;BME280;19047;44.782;20.468;2022-08-21T16:37:03;100174.56;;;22.41;85.11
30347;BME280;19047;44.782;20.468;2022-08-21T16:40:20;100172.22;;;22.40;84.94
30347;BME280;19047;44.782;20.468;2022-08-21T16:43:51;100176.38;;;22.39;85.04
30347;BME280;19047;44.782;20.468;2022-08-21T16:47:08;100173.25;;;22.37;85.10
30347;BME280;19047;44.782;20.468;2022-08-21T16:50:41;100175.31;;;22.36;85.32
30347;BME280;19047;44.782;20.468;2022-08-21T16:53:59;100178.19;;;22.36;85.33
30347;BME280;19047;44.782;20.468;2022-08-21T16:57:29;100182.31;;;22.35;85.22
30347;BME280;19047;44.782;20.468;2022-08-21T17:00:49;100184.88;;;22.33;85.51
30347;BME280;19047;44.782;20.468;2022-08-21T17:04:20;100179.69;;;22.32;85.27
30347;BME280;19047;44.782;20.468;2022-08-21T17:07:37;100182.25;;;22.30;85.19
30347;BME280;19047;44.782;20.468;2022-08-21T17:11:09;100182.75;;;22.28;85.41
30347;BME280;19047;44.782;20.468;2022-08-21T17:14:26;100188.22;;;22.26;85.23
30347;BME280;19047;44.782;20.468;2022-08-21T17:18:01;100195.66;;;22.18;85.58
30347;BME280;19047;44.782;20.468;2022-08-21T17:21:18;100198.56;;;22.24;85.49
30347;BME280;19047;44.782;20.468;2022-08-21T17:24:49;100199.84;;;22.23;85.71
30347;BME280;19047;44.782;20.468;2022-08-21T17:28:06;100222.06;;;22.18;85.46
30347;BME280;19047;44.782;20.468;2022-08-21T17:31:37;100207.81;;;22.18;85.62
30347;BME280;19047;44.782;20.468;2022-08-21T17:34:55;100210.41;;;22.16;85.67
30347;BME280;19047;44.782;20.468;2022-08-21T17:38:26;100206.00;;;22.15;85.89
30347;BME280;19047;44.782;20.468;2022-08-21T17:41:46;100198.75;;;22.14;85.73
30347;BME280;19047;44.782;20.468;2022-08-21T17:45:18;100204.94;;;22.13;86.04
30347;BME280;19047;44.782;20.468;2022-08-21T17:48:34;100204.66;;;22.11;85.98
30347;BME280;19047;44.782;20.468;2022-08-21T17:52:06;100210.09;;;22.09;86.11
30347;BME280;19047;44.782;20.468;2022-08-21T17:55:23;100212.66;;;22.07;86.38
30347;BME280;19047;44.782;20.468;2022-08-21T17:58:55;100220.44;;;22.06;86.26
30347;BME280;19047;44.782;20.468;2022-08-21T18:02:13;100224.56;;;22.05;86.35
30347;BME280;19047;44.782;20.468;2022-08-21T18:05:45;100234.91;;;22.03;86.56
30347;BME280;19047;44.782;20.468;2022-08-21T18:09:02;100232.06;;;22.03;86.63
30347;BME280;19047;44.782;20.468;2022-08-21T18:12:33;100236.97;;;22.02;86.50
30347;BME280;19047;44.782;20.468;2022-08-21T18:15:50;100239.81;;;22.02;86.58
30347;BME280;19047;44.782;20.468;2022-08-21T18:19:21;100213.19;;;21.85;86.75
30347;BME280;19047;44.782;20.468;2022-08-21T18:22:41;100232.84;;;22.03;86.64
30347;BME280;19047;44.782;20.468;2022-08-21T18:26:14;100244.25;;;22.03;86.75
30347;BME280;19047;44.782;20.468;2022-08-21T18:29:34;100211.66;;;21.84;86.71
30347;BME280;19047;44.782;20.468;2022-08-21T18:33:06;100241.38;;;22.03;86.75
30347;BME280;19047;44.782;20.468;2022-08-21T18:36:23;100244.25;;;22.03;86.88
30347;BME280;19047;44.782;20.468;2022-08-21T18:39:54;100244.25;;;22.03;86.98
30347;BME280;19047;44.782;20.468;2022-08-21T18:43:11;100241.38;;;22.03;86.88
30347;BME280;19047;44.782;20.468;2022-08-21T18:46:45;100232.84;;;22.03;86.89
30347;BME280;19047;44.782;20.468;2022-08-21T18:50:04;100231.28;;;22.02;86.88